Time;durP1;ratioP1;P1;durP2;ratioP2;P2;SDS_P1;SDS_P2;PMS_P1;PMS_P2;Temp;Humidity;BMP_temperature;BMP_pressure;BME280_temperature;BME280_humidity;BME280_pressure;Samples;Min_cycle;Max_cycle;Signal;HPM_P1;HPM_P2
2021/04/29 00:00:50;;;;;;;1.87;0.80;;;;;;;6.27;63.31;100950.59;5071139;28;20204;-76
2021/04/29 00:03:17;;;;;;;1.37;0.83;;;;;;;6.03;63.63;100917.94;5078331;28;20561;-76
2021/04/29 00:05:45;;;;;;;1.43;0.90;;;;;;;6.16;63.40;100931.59;5107034;27;20206;-76
2021/04/29 00:08:24;;;;;;;1.07;0.90;;;;;;;6.21;63.24;100935.75;5073222;28;20262;-75
2021/04/29 00:10:52;;;;;;;0.80;0.80;;;;;;;6.31;62.63;100944.19;5072788;28;20221;-75
2021/04/29 00:13:19;;;;;;;1.00;0.90;;;;;;;6.35;62.70;100947.56;5088769;28;20705;-75
2021/04/29 00:15:47;;;;;;;0.77;0.77;;;;;;;6.35;63.24;100937.75;5084051;28;20207;-73
2021/04/29 00:18:14;;;;;;;1.73;1.00;;;;;;;6.23;63.67;100933.88;5090060;28;20699;-74
2021/04/29 00:20:42;;;;;;;0.57;0.53;;;;;;;6.26;65.18;100942.69;5071382;28;20209;-74
2021/04/29 00:23:09;;;;;;;0.57;0.57;;;;;;;6.24;65.13;100929.41;5083144;28;20199;-73
2021/04/29 00:25:37;;;;;;;0.97;0.80;;;;;;;6.25;64.84;100932.94;5077495;28;20202;-74
2021/04/29 00:28:05;;;;;;;1.00;0.90;;;;;;;6.04;65.01;100905.47;5076848;28;20683;-74
2021/04/29 00:30:32;;;;;;;1.03;0.90;;;;;;;6.11;65.26;100917.56;5072537;28;20689;-74
2021/04/29 00:32:59;;;;;;;2.00;0.93;;;;;;;6.17;64.67;100927.97;5074368;28;20696;-74
2021/04/29 00:35:26;;;;;;;0.83;0.80;;;;;;;5.89;64.46;100883.94;5073097;28;20194;-74
2021/04/29 00:37:53;;;;;;;1.37;0.90;;;;;;;6.03;66.37;100925.06;5079778;28;20209;-74
2021/04/29 00:40:21;;;;;;;0.70;0.70;;;;;;;6.09;67.40;100930.13;5082521;28;20204;-74
2021/04/29 00:42:48;;;;;;;0.83;0.60;;;;;;;5.99;65.67;100912.81;5076724;28;20198;-74
2021/04/29 00:45:16;;;;;;;54.33;34.30;;;;;;;5.76;66.23;100887.19;5084251;28;20601;-73
2021/04/29 00:47:43;;;;;;;5.10;2.00;;;;;;;6.00;66.42;100920.75;5083553;28;20201;-74
2021/04/29 00:50:12;;;;;;;1.30;1.20;;;;;;;5.91;67.55;100935.38;5084773;28;20666;-73
2021/04/29 00:52:40;;;;;;;2.43;2.23;;;;;;;5.84;67.56;100925.03;5081097;28;20202;-73
2021/04/29 00:55:08;;;;;;;1.03;1.03;;;;;;;5.46;69.58;100882.31;5081200;28;20194;-75
2021/04/29 00:57:35;;;;;;;0.73;0.73;;;;;;;5.56;69.56;100909.41;5088395;28;20607;-74
2021/04/29 01:00:06;;;;;;;1.30;1.20;;;;;;;5.33;71.38;100899.75;5080248;28;20251;-74
2021/04/29 01:02:36;;;;;;;1.40;1.13;;;;;;;5.32;71.26;100910.47;5076510;28;20209;-74
2021/04/29 01:05:06;;;;;;;3.00;0.90;;;;;;;5.34;72.13;100909.47;5079139;28;20285;-74
2021/04/29 01:07:38;;;;;;;0.93;0.93;;;;;;;5.21;72.88;100914.47;5083097;28;20204;-74
2021/04/29 01:10:12;;;;;;;1.63;1.10;;;;;;;5.16;73.25;100911.13;5074677;28;20279;-73
2021/04/29 01:12:44;;;;;;;1.10;1.00;;;;;;;4.98;73.66;100880.00;5080133;28;20204;-75
2021/04/29 01:15:14;;;;;;;1.47;1.30;;;;;;;5.05;74.39;100897.44;5079810;28;20205;-74
2021/04/29 01:17:44;;;;;;;1.10;1.00;;;;;;;4.82;74.31;100852.28;5081280;28;20192;-75
2021/04/29 01:20:18;;;;;;;0.90;0.90;;;;;;;5.09;73.83;100893.69;5079781;28;20197;-75
2021/04/29 01:22:54;;;;;;;1.00;0.90;;;;;;;5.16;72.82;100868.53;5077690;28;20225;-75
2021/04/29 01:25:28;;;;;;;0.73;0.63;;;;;;;5.09;72.27;100840.47;5075736;28;20560;-75
2021/04/29 01:27:57;;;;;;;1.07;0.77;;;;;;;5.45;71.34;100887.69;5082104;28;20740;-75
2021/04/29 01:30:26;;;;;;;0.50;0.50;;;;;;;5.38;70.17;100867.59;5079001;28;20250;-74
2021/04/29 01:32:54;;;;;;;0.70;0.70;;;;;;;5.58;69.42;100875.59;5080048;28;22179;-74
2021/04/29 01:35:22;;;;;;;0.90;0.70;;;;;;;5.75;67.98;100886.31;5078782;28;20194;-75
2021/04/29 01:37:51;;;;;;;1.17;0.73;;;;;;;5.75;68.52;100894.31;5074986;28;20292;-74
2021/04/29 01:40:18;;;;;;;0.60;0.60;;;;;;;5.66;68.93;100891.22;5082965;28;20197;-75
2021/04/29 01:42:45;;;;;;;2.80;0.60;;;;;;;5.66;68.33;100878.75;5088170;28;20284;-75
2021/04/29 01:45:14;;;;;;;0.50;0.50;;;;;;;5.69;67.84;100883.94;5083185;28;20284;-75
2021/04/29 01:47:42;;;;;;;0.60;0.60;;;;;;;5.82;67.32;100889.59;5075884;28;20193;-75
2021/04/29 01:50:12;;;;;;;0.73;0.73;;;;;;;5.81;67.75;100893.16;5074739;28;20233;-75
2021/04/29 01:52:40;;;;;;;0.60;0.60;;;;;;;5.78;68.45;100883.50;5076456;28;20288;-74
2021/04/29 01:55:09;;;;;;;0.80;0.80;;;;;;;5.72;68.91;100880.28;5078607;28;20216;-74
2021/04/29 01:57:36;;;;;;;0.60;0.60;;;;;;;5.39;69.42;100846.22;5077531;28;20209;-75
2021/04/29 02:00:08;;;;;;;1.00;0.70;;;;;;;5.51;70.28;100879.44;5088007;28;20206;-75
2021/04/29 02:02:36;;;;;;;0.93;0.87;;;;;;;5.33;70.72;100866.94;5070447;28;20197;-75
2021/04/29 02:05:03;;;;;;;0.63;0.63;;;;;;;5.29;71.87;100863.56;5082712;28;20259;-75
2021/04/29 02:07:31;;;;;;;2.20;0.93;;;;;;;4.93;71.94;100828.78;5072882;28;20201;-75
2021/04/29 02:09:58;;;;;;;0.60;0.60;;;;;;;4.98;73.06;100861.38;5085127;28;20775;-75
2021/04/29 02:12:31;;;;;;;0.50;0.50;;;;;;;5.04;72.80;100862.91;5076803;28;20576;-74
2021/04/29 02:15:03;;;;;;;0.97;0.87;;;;;;;4.80;72.43;100817.78;5076871;28;20217;-75
2021/04/29 02:17:35;;;;;;;0.87;0.70;;;;;;;5.04;71.90;100841.59;5071164;28;20208;-75
2021/04/29 02:20:06;;;;;;;1.50;0.67;;;;;;;5.13;72.51;100860.69;5074141;28;20191;-75
2021/04/29 02:22:36;;;;;;;0.73;0.73;;;;;;;5.22;71.31;100851.47;5081311;28;20204;-75
2021/04/29 02:25:05;;;;;;;2.57;0.63;;;;;;;5.30;71.04;100844.84;5082891;28;20189;-74
2021/04/29 02:27:34;;;;;;;0.80;0.80;;;;;;;5.28;70.90;100833.41;5073756;28;20721;-74
2021/04/29 02:30:03;;;;;;;1.37;0.70;;;;;;;5.41;70.06;100851.50;5082518;28;20272;-75
2021/04/29 02:32:30;;;;;;;0.80;0.63;;;;;;;5.51;69.18;100850.13;5077365;28;20290;-75
2021/04/29 02:34:58;;;;;;;3.30;0.80;;;;;;;5.58;68.56;100849.81;5076409;28;20574;-75
2021/04/29 02:37:26;;;;;;;0.50;0.50;;;;;;;5.56;68.08;100840.16;5085666;28;20645;-75
2021/04/29 02:39:54;;;;;;;1.37;0.60;;;;;;;5.60;68.27;100842.63;5079745;28;20194;-75
2021/04/29 02:42:22;;;;;;;1.07;0.97;;;;;;;5.62;68.59;100850.53;5083665;28;20205;-74
2021/04/29 02:44:49;;;;;;;0.70;0.70;;;;;;;5.67;67.67;100848.50;5083731;28;20555;-75
2021/04/29 02:47:17;;;;;;;1.00;0.63;;;;;;;5.69;67.25;100848.44;5083391;28;20197;-74
2021/04/29 02:49:44;;;;;;;23.10;16.03;;;;;;;5.72;66.94;100843.84;5069916;28;20206;-75
2021/04/29 02:52:12;;;;;;;36.80;14.07;;;;;;;5.77;66.39;100849.81;5077361;28;20202;-75
2021/04/29 02:54:41;;;;;;;11.80;5.40;;;;;;;5.71;66.03;100836.78;5084069;28;20224;-75
2021/04/29 02:57:08;;;;;;;6.73;3.97;;;;;;;5.87;65.60;100842.28;5075566;28;20273;-74
2021/04/29 02:59:39;;;;;;;10.00;5.33;;;;;;;5.85;66.69;100841.50;5078387;28;20686;-75
2021/04/29 03:02:08;;;;;;;8.33;3.97;;;;;;;5.56;67.21;100808.19;5083139;28;20197;-75
2021/04/29 03:04:37;;;;;;;6.37;2.77;;;;;;;5.85;67.33;100839.69;5085625;28;20207;-75
2021/04/29 03:07:05;;;;;;;5.70;3.60;;;;;;;5.89;66.93;100843.97;5077278;28;20193;-75
2021/04/29 03:09:32;;;;;;;6.63;3.10;;;;;;;5.81;66.25;100811.41;5073056;28;20244;-75
2021/04/29 03:12:00;;;;;;;4.10;2.83;;;;;;;6.01;65.78;100844.31;5078942;28;20206;-75
2021/04/29 03:14:28;;;;;;;3.20;2.10;;;;;;;5.68;65.75;100775.66;5086454;28;20306;-75
2021/04/29 03:16:55;;;;;;;4.57;2.93;;;;;;;6.09;65.48;100842.13;5074245;28;20212;-75
2021/04/29 03:19:22;;;;;;;2.57;2.10;;;;;;;6.14;65.07;100851.66;5083023;28;20272;-75
2021/04/29 03:21:49;;;;;;;9.33;4.50;;;;;;;6.20;64.54;100859.38;5085587;28;20207;-75
2021/04/29 03:24:17;;;;;;;1.43;1.10;;;;;;;6.28;64.43;100850.13;5089231;28;20208;-75
2021/04/29 03:26:44;;;;;;;3.13;1.10;;;;;;;6.27;64.47;100849.25;5085235;28;20199;-75
2021/04/29 03:29:12;;;;;;;1.70;1.00;;;;;;;6.18;64.97;100847.06;5091962;28;20540;-74
2021/04/29 03:31:39;;;;;;;6.00;0.90;;;;;;;6.23;64.97;100858.34;5085239;28;20219;-75
2021/04/29 03:34:07;;;;;;;1.53;0.83;;;;;;;6.22;65.11;100862.81;5076395;28;20224;-74
2021/04/29 03:36:35;;;;;;;0.73;0.73;;;;;;;6.12;65.43;100852.66;5071867;28;20317;-75
2021/04/29 03:39:03;;;;;;;0.80;0.60;;;;;;;5.95;66.75;100863.25;5089611;28;20198;-74
2021/04/29 03:41:31;;;;;;;0.87;0.70;;;;;;;5.87;66.86;100858.25;5084249;28;20196;-74
2021/04/29 03:43:58;;;;;;;0.60;0.60;;;;;;;5.79;67.09;100858.59;5089729;28;20199;-75
2021/04/29 03:46:26;;;;;;;1.50;0.70;;;;;;;5.83;66.25;100849.56;5089381;28;20581;-75
2021/04/29 03:48:53;;;;;;;0.60;0.60;;;;;;;5.97;65.59;100870.25;5088212;28;20349;-74
2021/04/29 03:51:20;;;;;;;1.60;0.63;;;;;;;5.84;65.69;100840.63;5079195;28;20209;-75
2021/04/29 03:53:47;;;;;;;1.93;0.93;;;;;;;5.82;65.33;100822.97;5075882;28;20224;-75
2021/04/29 03:56:14;;;;;;;2.93;0.90;;;;;;;6.07;65.28;100862.69;5079077;28;20204;-75
2021/04/29 03:58:41;;;;;;;1.97;1.00;;;;;;;6.01;65.27;100857.63;5080300;28;20198;-74
2021/04/29 04:01:08;;;;;;;0.60;0.60;;;;;;;6.10;65.31;100859.84;5083106;28;20204;-75
2021/04/29 04:03:37;;;;;;;0.90;0.80;;;;;;;6.07;65.30;100866.19;5078790;28;20353;-75
2021/04/29 04:06:04;;;;;;;0.50;0.50;;;;;;;6.05;65.81;100865.41;5083667;28;20197;-75
2021/04/29 04:08:31;;;;;;;3.33;0.90;;;;;;;6.03;65.65;100861.97;5085084;28;20234;-75
2021/04/29 04:10:58;;;;;;;0.87;0.77;;;;;;;6.00;65.10;100847.91;5086340;28;20199;-75
2021/04/29 04:13:26;;;;;;;1.30;0.80;;;;;;;6.09;65.15;100872.31;5080322;28;20506;-75
2021/04/29 04:15:53;;;;;;;2.97;1.10;;;;;;;6.14;64.93;100864.13;5079590;28;20200;-75
2021/04/29 04:18:20;;;;;;;0.60;0.60;;;;;;;6.07;65.54;100863.53;5085647;28;20204;-74
2021/04/29 04:20:48;;;;;;;0.77;0.77;;;;;;;6.19;64.82;100876.31;5077143;28;20196;-74
2021/04/29 04:23:17;;;;;;;0.53;0.53;;;;;;;6.21;64.54;100878.91;5078095;28;20222;-75
2021/04/29 04:25:45;;;;;;;0.73;0.73;;;;;;;6.11;64.97;100856.25;5086907;28;20197;-74
2021/04/29 04:28:12;;;;;;;1.90;0.80;;;;;;;6.28;64.11;100874.13;5076522;28;20197;-74
2021/04/29 04:30:39;;;;;;;0.80;0.70;;;;;;;6.30;64.58;100875.78;5083787;28;20205;-75
2021/04/29 04:33:06;;;;;;;1.00;0.90;;;;;;;6.32;65.02;100879.25;5086428;28;20260;-75
2021/04/29 04:35:33;;;;;;;1.00;0.90;;;;;;;6.37;64.87;100871.00;5086677;28;20200;-74
2021/04/29 04:38:01;;;;;;;0.63;0.63;;;;;;;6.35;64.51;100857.75;5081941;28;20207;-75
2021/04/29 04:40:28;;;;;;;0.73;0.73;;;;;;;6.31;64.90;100844.66;5081303;28;20207;-74
2021/04/29 04:42:56;;;;;;;1.20;0.70;;;;;;;6.54;64.54;100873.75;5087431;28;20200;-74
2021/04/29 04:45:23;;;;;;;0.63;0.63;;;;;;;6.56;65.12;100876.31;5084141;28;20661;-74
2021/04/29 04:47:50;;;;;;;0.97;0.90;;;;;;;6.56;65.88;100871.84;5085967;28;20595;-74
2021/04/29 04:50:17;;;;;;;1.83;1.00;;;;;;;6.54;66.30;100873.75;5076774;28;20618;-74
2021/04/29 04:52:44;;;;;;;6.17;1.17;;;;;;;6.51;65.62;100864.09;5077731;28;20209;-75
2021/04/29 04:55:13;;;;;;;1.07;0.97;;;;;;;6.24;66.25;100812.09;5073053;28;20431;-75
2021/04/29 04:57:41;;;;;;;0.70;0.70;;;;;;;6.46;67.26;100860.78;5079222;28;20286;-75
2021/04/29 05:00:09;;;;;;;1.17;0.90;;;;;;;6.48;67.57;100874.91;5077471;28;20221;-74
2021/04/29 05:02:39;;;;;;;3.23;1.00;;;;;;;6.46;67.53;100875.94;5077847;28;20248;-74
2021/04/29 05:05:07;;;;;;;1.17;0.70;;;;;;;6.29;67.50;100857.19;5081059;28;20608;-74
2021/04/29 05:07:35;;;;;;;106.20;44.53;;;;;;;6.12;68.15;100831.31;5079308;28;20210;-74
2021/04/29 05:10:02;;;;;;;1.97;1.87;;;;;;;6.42;69.30;100880.50;5075954;28;20700;-73
2021/04/29 05:12:30;;;;;;;1.07;0.97;;;;;;;6.54;69.48;100893.28;5081231;28;20198;-74
2021/04/29 05:14:57;;;;;;;1.30;1.20;;;;;;;6.47;69.49;100869.66;5078808;28;20214;-74
2021/04/29 05:17:24;;;;;;;0.90;0.90;;;;;;;6.63;68.75;100891.09;5073264;28;20605;-74
2021/04/29 05:19:52;;;;;;;2.13;1.00;;;;;;;6.63;69.06;100889.28;5087272;28;20204;-74
2021/04/29 05:22:19;;;;;;;1.57;1.00;;;;;;;6.64;69.49;100885.69;5081237;28;20201;-74
2021/04/29 05:24:46;;;;;;;1.43;1.13;;;;;;;6.71;69.85;100891.56;5079902;28;20195;-73
2021/04/29 05:27:13;;;;;;;1.33;1.00;;;;;;;6.75;69.78;100894.03;5081647;28;20740;-74
2021/04/29 05:29:41;;;;;;;1.20;1.10;;;;;;;6.46;70.02;100850.13;5085057;28;20535;-74
2021/04/29 05:32:09;;;;;;;0.73;0.73;;;;;;;6.84;69.68;100900.72;5080039;28;20230;-74
2021/04/29 05:34:37;;;;;;;1.20;1.10;;;;;;;6.81;69.58;100901.72;5084091;28;20226;-74
2021/04/29 05:37:04;;;;;;;0.77;0.77;;;;;;;6.66;68.94;100901.59;5083999;28;20725;-74
2021/04/29 05:39:32;;;;;;;1.17;0.97;;;;;;;6.80;68.94;100901.81;5075342;28;20746;-74
2021/04/29 05:42:00;;;;;;;0.90;0.90;;;;;;;6.88;69.09;100904.94;5083956;28;20197;-74
2021/04/29 05:44:27;;;;;;;37.53;25.73;;;;;;;6.72;69.09;100878.16;5079875;28;20314;-74
2021/04/29 05:46:55;;;;;;;1.40;1.00;;;;;;;7.02;68.81;100909.59;5078707;28;20199;-75
2021/04/29 05:49:22;;;;;;;0.60;0.60;;;;;;;7.13;68.70;100910.78;5080007;28;20602;-74
2021/04/29 05:51:49;;;;;;;0.60;0.60;;;;;;;7.20;68.04;100905.13;5076697;28;20200;-76
2021/04/29 05:54:16;;;;;;;1.40;0.77;;;;;;;7.18;68.03;100912.34;5073307;28;20249;-74
2021/04/29 05:56:43;;;;;;;0.80;0.80;;;;;;;7.19;67.38;100906.94;5078579;28;20198;-74
2021/04/29 05:59:11;;;;;;;0.83;0.80;;;;;;;7.15;67.84;100911.56;5078484;28;20205;-75
2021/04/29 06:01:38;;;;;;;0.80;0.80;;;;;;;7.19;68.36;100908.75;5078692;28;20201;-74
2021/04/29 06:04:06;;;;;;;1.33;0.97;;;;;;;7.23;68.26;100910.31;5075865;28;20197;-73
2021/04/29 06:06:33;;;;;;;1.70;1.20;;;;;;;7.37;67.53;100910.47;5079623;28;20199;-73
2021/04/29 06:09:00;;;;;;;0.77;0.77;;;;;;;7.50;67.10;100908.88;5076653;28;20690;-75
2021/04/29 06:11:27;;;;;;;1.10;0.97;;;;;;;7.50;66.63;100918.72;5074138;28;20816;-75
2021/04/29 06:13:55;;;;;;;1.10;0.70;;;;;;;7.61;67.68;100911.84;5077053;28;20248;-75
2021/04/29 06:16:23;;;;;;;2.23;1.07;;;;;;;7.79;66.61;100913.56;5068104;28;20204;-75
2021/04/29 06:18:50;;;;;;;2.13;1.20;;;;;;;7.77;66.37;100917.25;5075266;28;20207;-75
2021/04/29 06:21:18;;;;;;;4.10;1.00;;;;;;;7.64;66.58;100910.81;5076452;28;20207;-73
2021/04/29 06:23:45;;;;;;;1.37;1.00;;;;;;;7.79;66.11;100916.22;5073596;28;20207;-73
2021/04/29 06:26:12;;;;;;;4.40;1.30;;;;;;;8.00;66.38;100914.22;5076717;28;20202;-74
2021/04/29 06:28:39;;;;;;;1.10;1.00;;;;;;;8.21;65.25;100911.28;5079316;28;20285;-75
2021/04/29 06:31:08;;;;;;;1.63;1.20;;;;;;;8.46;65.15;100910.81;5072695;28;20209;-76
2021/04/29 06:33:35;;;;;;;1.53;0.97;;;;;;;8.34;63.84;100905.22;5074093;28;20215;-76
2021/04/29 06:36:02;;;;;;;1.93;1.00;;;;;;;8.55;64.09;100910.28;5072972;28;20199;-75
2021/04/29 06:38:30;;;;;;;3.20;1.40;;;;;;;8.63;64.00;100918.78;5077257;28;20206;-74
2021/04/29 06:40:57;;;;;;;1.63;1.17;;;;;;;8.68;64.31;100916.69;5072740;28;20661;-74
2021/04/29 06:43:24;;;;;;;1.33;0.87;;;;;;;8.84;63.52;100913.97;5069412;28;20210;-74
2021/04/29 06:45:52;;;;;;;2.67;0.90;;;;;;;8.88;63.15;100886.97;5073529;28;20202;-74
2021/04/29 06:48:20;;;;;;;1.20;0.80;;;;;;;9.16;62.01;100910.28;5077034;28;20225;-74
2021/04/29 06:50:48;;;;;;;1.60;1.00;;;;;;;9.29;61.93;100913.13;5073200;28;20271;-74
2021/04/29 06:53:15;;;;;;;1.67;1.00;;;;;;;9.16;62.25;100904.06;5070263;28;20300;-73
2021/04/29 06:55:43;;;;;;;2.97;0.87;;;;;;;9.26;60.81;100915.97;5073519;28;20215;-73
2021/04/29 06:58:10;;;;;;;0.80;0.80;;;;;;;9.34;59.64;100902.97;5075703;28;20200;-73
2021/04/29 07:00:40;;;;;;;0.80;0.80;;;;;;;9.44;60.07;100909.50;5075062;28;20198;-74
2021/04/29 07:03:07;;;;;;;3.23;0.70;;;;;;;8.71;59.37;100849.59;5076023;28;20641;-73
2021/04/29 07:05:34;;;;;;;1.33;1.10;;;;;;;9.08;59.80;100896.50;5071012;28;20205;-74
2021/04/29 07:08:01;;;;;;;1.87;1.00;;;;;;;8.97;58.21;100865.00;5076308;28;20205;-73
2021/04/29 07:10:28;;;;;;;1.00;1.00;;;;;;;9.43;55.94;100910.47;5070197;28;20200;-73
2021/04/29 07:13:06;;;;;;;0.77;0.73;;;;;;;9.45;56.63;100903.19;5080097;28;20191;-73
2021/04/29 07:15:33;;;;;;;0.70;0.70;;;;;;;9.79;56.76;100901.97;5077111;28;20221;-73
2021/04/29 07:18:02;;;;;;;0.93;0.70;;;;;;;9.67;54.36;100885.78;5075335;28;20191;-73
2021/04/29 07:20:30;;;;;;;0.70;0.70;;;;;;;9.78;54.68;100892.22;5081014;28;20197;-73
2021/04/29 07:22:57;;;;;;;2.27;0.70;;;;;;;10.20;55.95;100896.75;5070837;28;20207;-72
2021/04/29 07:25:24;;;;;;;0.93;0.87;;;;;;;10.56;53.59;100898.00;5077967;28;20199;-73
2021/04/29 07:27:51;;;;;;;0.60;0.60;;;;;;;10.44;50.94;100909.56;5076172;28;20667;-73
2021/04/29 07:30:19;;;;;;;0.87;0.87;;;;;;;10.17;52.17;100883.50;5073680;28;20588;-73
2021/04/29 07:32:46;;;;;;;1.17;0.73;;;;;;;10.29;51.29;100910.53;5075361;28;20208;-72
2021/04/29 07:35:14;;;;;;;2.43;0.70;;;;;;;10.18;53.28;100905.81;5075122;28;20224;-72
2021/04/29 07:37:42;;;;;;;0.80;0.70;;;;;;;10.29;53.74;100848.78;5072213;28;20208;-72
2021/04/29 07:40:10;;;;;;;0.90;0.90;;;;;;;10.80;53.41;100901.78;5080225;28;20221;-73
2021/04/29 07:42:37;;;;;;;0.80;0.80;;;;;;;10.85;52.18;100899.66;5078512;28;20223;-72
2021/04/29 07:45:05;;;;;;;3.33;0.80;;;;;;;10.79;53.57;100892.00;5083998;28;20636;-74
2021/04/29 07:47:34;;;;;;;1.33;1.20;;;;;;;11.24;54.59;100907.81;5080423;28;20208;-74
2021/04/29 07:50:02;;;;;;;2.77;0.83;;;;;;;11.16;53.18;100906.50;5080587;28;20196;-73
2021/04/29 07:52:30;;;;;;;5.23;0.90;;;;;;;11.39;52.85;100904.94;5073848;28;20211;-73
2021/04/29 07:54:57;;;;;;;1.40;1.03;;;;;;;11.12;51.34;100918.44;5079959;28;20271;-72
2021/04/29 07:57:24;;;;;;;1.70;1.00;;;;;;;11.32;51.75;100909.00;5081717;28;20194;-73
2021/04/29 07:59:51;;;;;;;0.83;0.83;;;;;;;10.87;50.11;100905.78;5088319;28;20193;-73
2021/04/29 08:02:18;;;;;;;0.93;0.90;;;;;;;11.01;49.12;100896.78;5082872;28;20208;-72
2021/04/29 08:04:46;;;;;;;2.20;0.90;;;;;;;10.75;49.10;100893.16;5081828;28;20639;-72
2021/04/29 08:07:13;;;;;;;0.73;0.73;;;;;;;10.97;49.01;100897.09;5086697;28;20200;-73
2021/04/29 08:09:44;;;;;;;0.93;0.70;;;;;;;10.80;47.81;100907.16;5089882;28;20687;-73
2021/04/29 08:12:11;;;;;;;1.20;0.90;;;;;;;10.85;48.91;100910.38;5084287;28;20370;-72
2021/04/29 08:14:38;;;;;;;0.90;0.90;;;;;;;10.85;47.58;100902.34;5083150;28;20222;-73
2021/04/29 08:17:06;;;;;;;0.93;0.87;;;;;;;10.89;47.71;100903.84;5088775;28;20208;-73
2021/04/29 08:19:34;;;;;;;0.60;0.60;;;;;;;10.82;48.46;100899.84;5088119;28;20663;-74
2021/04/29 08:22:03;;;;;;;0.60;0.60;;;;;;;10.88;46.22;100907.50;5085854;28;20209;-74
2021/04/29 08:24:30;;;;;;;3.07;0.83;;;;;;;11.14;47.68;100900.38;5076081;28;20211;-72
2021/04/29 08:26:57;;;;;;;1.17;0.80;;;;;;;11.12;46.47;100905.00;5085941;28;20208;-74
2021/04/29 08:29:25;;;;;;;0.83;0.73;;;;;;;11.02;45.59;100892.25;5083043;28;20282;-74
2021/04/29 08:31:53;;;;;;;0.70;0.70;;;;;;;11.30;44.86;100900.19;5079813;28;20230;-73
2021/04/29 08:34:20;;;;;;;0.80;0.60;;;;;;;11.37;43.36;100901.50;5087311;28;20212;-73
2021/04/29 08:36:47;;;;;;;0.53;0.53;;;;;;;11.64;43.90;100881.75;5082986;28;20197;-73
2021/04/29 08:39:15;;;;;;;0.60;0.60;;;;;;;11.97;41.08;100906.31;5084608;28;20189;-73
2021/04/29 08:41:44;;;;;;;0.77;0.77;;;;;;;11.95;39.93;100858.94;5076795;28;20202;-72
2021/04/29 08:44:11;;;;;;;0.47;0.47;;;;;;;11.86;35.23;100914.25;5084384;28;20202;-72
2021/04/29 08:46:38;;;;;;;1.00;1.00;;;;;;;11.72;37.25;100893.69;5086925;28;20662;-73
2021/04/29 08:49:05;;;;;;;0.60;0.60;;;;;;;11.61;39.00;100904.31;5084124;28;20938;-72
2021/04/29 08:51:32;;;;;;;1.00;0.90;;;;;;;11.60;37.31;100899.03;5081165;28;20203;-71
2021/04/29 08:54:01;;;;;;;0.80;0.80;;;;;;;11.56;40.92;100905.59;5087046;28;20655;-73
2021/04/29 08:56:29;;;;;;;0.60;0.60;;;;;;;11.57;40.37;100891.19;5088589;28;20197;-74
2021/04/29 08:58:58;;;;;;;1.30;0.60;;;;;;;11.83;41.16;100914.47;5085901;28;20209;-74
2021/04/29 09:01:26;;;;;;;1.83;0.57;;;;;;;12.05;39.61;100881.53;5091518;28;20204;-74
2021/04/29 09:03:54;;;;;;;1.40;0.70;;;;;;;12.13;39.82;100896.16;5082796;28;20197;-73
2021/04/29 09:06:31;;;;;;;0.60;0.60;;;;;;;11.71;42.38;100866.88;5090310;28;20667;-74
2021/04/29 09:08:59;;;;;;;0.53;0.53;;;;;;;11.67;41.76;100914.66;5084630;28;20229;-74
2021/04/29 09:11:26;;;;;;;2.20;0.90;;;;;;;11.58;41.81;100887.53;5084110;28;20266;-76
2021/04/29 09:13:56;;;;;;;0.70;0.70;;;;;;;11.67;44.82;100884.22;5080114;28;20224;-75
2021/04/29 09:16:24;;;;;;;1.60;0.80;;;;;;;11.76;42.91;100902.41;5084687;28;20200;-75
2021/04/29 09:18:51;;;;;;;1.10;1.00;;;;;;;11.80;43.72;100887.78;5089695;28;20201;-75
2021/04/29 09:21:18;;;;;;;0.60;0.60;;;;;;;12.09;45.38;100899.19;5083323;28;20188;-75
2021/04/29 09:23:46;;;;;;;0.80;0.80;;;;;;;11.71;45.59;100908.09;5090788;28;20202;-75
2021/04/29 09:26:16;;;;;;;0.70;0.70;;;;;;;11.45;44.44;100914.44;5078556;28;20219;-74
2021/04/29 09:28:44;;;;;;;1.57;0.93;;;;;;;11.31;44.44;100895.66;5082986;28;20200;-75
2021/04/29 09:31:13;;;;;;;1.03;0.93;;;;;;;11.08;44.85;100873.06;5069345;28;20657;-74
2021/04/29 09:33:42;;;;;;;1.17;1.00;;;;;;;11.68;44.47;100885.94;5077915;28;20197;-75
2021/04/29 09:36:22;;;;;;;1.10;0.80;;;;;;;11.93;45.11;100891.31;5080930;28;20225;-75
2021/04/29 09:38:53;;;;;;;0.50;0.50;;;;;;;11.92;43.49;100894.13;5075442;28;20212;-73
2021/04/29 09:41:23;;;;;;;0.77;0.60;;;;;;;11.61;43.75;100898.06;5077693;28;20217;-73
2021/04/29 09:43:55;;;;;;;0.70;0.70;;;;;;;11.65;45.22;100899.59;5076225;28;20251;-73
2021/04/29 09:46:23;;;;;;;0.60;0.60;;;;;;;11.34;43.78;100882.91;5074539;28;20672;-73
2021/04/29 09:48:51;;;;;;;0.93;0.93;;;;;;;11.71;42.92;100878.50;5088294;28;20661;-73
2021/04/29 09:51:19;;;;;;;0.53;0.53;;;;;;;11.72;43.35;100885.63;5071541;28;20676;-73
2021/04/29 09:53:49;;;;;;;1.17;0.60;;;;;;;11.99;41.83;100876.59;5083598;28;20600;-73
2021/04/29 09:56:20;;;;;;;1.33;0.63;;;;;;;11.91;42.93;100882.50;5073831;28;20333;-73
2021/04/29 09:58:49;;;;;;;0.87;0.70;;;;;;;11.97;41.48;100887.47;5083202;28;20201;-74
2021/04/29 10:01:17;;;;;;;1.50;0.80;;;;;;;11.89;42.65;100897.03;5086558;28;20650;-73
2021/04/29 10:03:45;;;;;;;0.60;0.60;;;;;;;11.83;41.53;100903.72;5075454;28;20205;-74
2021/04/29 10:06:15;;;;;;;0.70;0.67;;;;;;;11.69;42.82;100891.22;5088123;28;20203;-74
2021/04/29 10:08:42;;;;;;;2.10;0.70;;;;;;;11.40;42.92;100858.28;5076150;28;20281;-74
2021/04/29 10:11:10;;;;;;;1.00;0.80;;;;;;;11.66;43.80;100887.88;5081138;28;20198;-74
2021/04/29 10:13:42;;;;;;;0.87;0.73;;;;;;;11.51;40.90;100887.97;5083657;28;20196;-74
2021/04/29 10:16:10;;;;;;;0.90;0.70;;;;;;;11.43;40.65;100881.41;5080701;28;20244;-73
2021/04/29 10:18:39;;;;;;;2.50;0.60;;;;;;;11.44;39.98;100886.66;5080115;28;20266;-74
2021/04/29 10:21:07;;;;;;;0.70;0.70;;;;;;;11.25;38.99;100877.28;5075800;28;20190;-74
2021/04/29 10:23:34;;;;;;;0.63;0.60;;;;;;;11.21;40.29;100884.69;5084448;28;20197;-74
2021/04/29 10:26:02;;;;;;;0.93;0.70;;;;;;;11.18;38.42;100883.06;5080227;28;20200;-73
2021/04/29 10:28:34;;;;;;;0.70;0.70;;;;;;;10.98;38.86;100863.88;5075791;28;20290;-73
2021/04/29 10:31:14;;;;;;;0.50;0.50;;;;;;;10.73;37.61;100859.31;5083218;28;20225;-74
2021/04/29 10:33:49;;;;;;;1.33;0.57;;;;;;;10.96;38.21;100855.06;5079957;28;20201;-71
2021/04/29 10:36:18;;;;;;;0.40;0.40;;;;;;;10.98;38.75;100880.00;5074530;28;20223;-76
2021/04/29 10:38:45;;;;;;;1.43;0.50;;;;;;;10.96;39.11;100850.56;5080954;28;20827;-75
2021/04/29 10:41:24;;;;;;;0.53;0.50;;;;;;;10.68;39.16;100854.22;5085799;28;20206;-73
2021/04/29 10:43:52;;;;;;;0.40;0.40;;;;;;;10.90;38.31;100875.16;5071735;28;20234;-74
2021/04/29 10:46:32;;;;;;;0.60;0.60;;;;;;;10.96;37.29;100868.50;5080696;28;20195;-73
2021/04/29 10:49:00;;;;;;;0.43;0.43;;;;;;;10.72;37.84;100860.28;5078743;28;20192;-73
2021/04/29 10:52:09;;;;;;;0.43;0.43;;;;;;;10.62;37.64;100865.38;5079084;28;20199;-74
2021/04/29 10:54:36;;;;;;;0.47;0.47;;;;;;;10.49;38.48;100873.38;5073554;28;20286;-75
2021/04/29 10:57:11;;;;;;;0.50;0.50;;;;;;;10.58;39.66;100872.78;5079144;28;20351;-73
2021/04/29 11:00:15;;;;;;;1.17;0.33;;;;;;;10.84;40.04;100881.81;5072160;28;20201;-73
2021/04/29 11:02:42;;;;;;;0.50;0.50;;;;;;;10.94;38.71;100884.72;5074018;28;20200;-74
2021/04/29 11:05:22;;;;;;;1.73;0.77;;;;;;;10.93;37.67;100863.34;5080441;28;20204;-75
2021/04/29 11:07:50;;;;;;;0.60;0.60;;;;;;;10.98;37.67;100871.94;5077565;28;20205;-75
2021/04/29 11:10:19;;;;;;;0.80;0.60;;;;;;;10.99;37.09;100865.59;5077540;28;20564;-73
2021/04/29 11:12:48;;;;;;;0.50;0.50;;;;;;;10.88;37.32;100869.88;5076045;28;20196;-76
2021/04/29 11:15:23;;;;;;;0.50;0.50;;;;;;;11.18;37.82;100868.78;5079173;28;20223;-75
2021/04/29 11:18:08;;;;;;;1.47;0.60;;;;;;;10.96;35.39;100876.56;5078974;28;20691;-75
2021/04/29 11:20:49;;;;;;;0.53;0.30;;;;;;;10.66;34.66;100882.16;5073904;28;20549;-74
2021/04/29 11:23:26;;;;;;;0.30;0.30;;;;;;;10.44;35.34;100875.53;5077685;28;20216;-75
2021/04/29 11:26:04;;;;;;;0.73;0.50;;;;;;;10.45;35.77;100871.00;5079416;28;20201;-75
2021/04/29 11:28:32;;;;;;;0.63;0.63;;;;;;;10.45;36.59;100879.06;5080077;28;20226;-75
2021/04/29 11:31:00;;;;;;;0.40;0.40;;;;;;;10.25;37.71;100824.84;5073910;28;20250;-75
2021/04/29 11:33:32;;;;;;;0.50;0.50;;;;;;;10.42;37.70;100868.53;5079047;28;20192;-74
2021/04/29 11:36:00;;;;;;;0.40;0.40;;;;;;;10.33;36.37;100863.75;5087514;28;20216;-73